Bardstown, Kentucky
Current Conditions -  °F | °C
As of 8:15 PM on Sunday 23 Nov 2014 (Local Time) from K6I2 Reporting Station
Broken Clouds Broken Clouds  
Wind Chill: 14°   Ceiling: 4300
Heat Index: 14°   Visibility: 10mi
Dew Point: 13°   Wind: 18mph
Humidity: 94%   Direction: 160°SSE
Pressure: 29.39"   Gusts: 30mph
Location:  37.81°N, 85.47°W
Report Text: K6I2 240115Z AUTO 16016G26KT 10SM FEW010 SCT016 BKN043 14/13 A2939 RMK AO2
Loading
Personal Weather Stations






























Interactive Weather Map New forecast layout! Learn more

10-Day Weather Forecast

Advertisements
Track Severe Weather on mobile